createdAt,value
2022-07-31T00:01:13.518Z,96333.75
2022-07-31T00:03:46.170Z,96333.34
2022-07-31T00:06:37.870Z,96335.50
2022-07-31T00:09:04.729Z,96346.81
2022-07-31T00:11:31.379Z,96343.19
2022-07-31T00:13:58.766Z,96355.34
2022-07-31T00:16:26.177Z,96352.34
2022-07-31T00:18:53.105Z,96348.50
2022-07-31T00:21:19.783Z,96347.94
2022-07-31T00:23:46.548Z,96344.91
2022-07-31T00:26:13.190Z,96339.41
2022-07-31T00:28:39.848Z,96337.41
2022-07-31T00:31:06.541Z,96339.63
2022-07-31T00:33:33.247Z,96344.53
2022-07-31T00:35:59.940Z,96344.16
2022-07-31T00:38:27.422Z,96345.81
2022-07-31T00:40:54.776Z,96332.63
2022-07-31T00:43:21.891Z,96342.16
2022-07-31T00:45:56.270Z,96331.63
2022-07-31T00:48:27.634Z,96328.16
2022-07-31T00:50:54.884Z,96329.78
2022-07-31T00:53:21.555Z,96322.69
2022-07-31T00:55:51.416Z,96323.94
2022-07-31T00:58:20.176Z,96324.31
2022-07-31T01:00:47.583Z,96320.03
2022-07-31T01:03:14.689Z,96314.97
2022-07-31T01:05:41.940Z,96308.28
2022-07-31T01:08:08.934Z,96316.38
2022-07-31T01:10:48.479Z,96318.38
2022-07-31T01:13:25.212Z,96316.94
2022-07-31T01:15:54.133Z,96321.75
2022-07-31T01:18:22.870Z,96316.25
2022-07-31T01:20:50.784Z,96317.69
2022-07-31T01:23:31.225Z,96309.63
2022-07-31T01:27:05.421Z,96318.13
2022-07-31T01:29:37.657Z,96316.06
2022-07-31T01:32:07.417Z,96314.81
2022-07-31T01:34:44.801Z,96321.72
2022-07-31T01:37:20.891Z,96316.63
2022-07-31T01:39:54.739Z,96323.72
2022-07-31T01:42:24.416Z,96319.66
2022-07-31T01:44:56.559Z,96317.19
2022-07-31T01:47:25.942Z,96317.59
2022-07-31T01:49:54.889Z,96317.19
2022-07-31T01:52:26.016Z,96315.97
2022-07-31T01:54:54.353Z,96316.97
2022-07-31T01:57:24.724Z,96309.53
2022-07-31T02:00:00.673Z,96315.78
2022-07-31T02:02:49.562Z,96305.25
2022-07-31T02:05:22.879Z,96301.63
2022-07-31T02:07:50.463Z,96295.34
2022-07-31T02:10:20.247Z,96294.03
2022-07-31T02:12:49.176Z,96288.75
2022-07-31T02:15:17.681Z,96293.34
2022-07-31T02:17:47.204Z,96291.69
2022-07-31T02:20:34.366Z,96285.66
2022-07-31T02:23:01.688Z,96289.97
2022-07-31T02:25:29.665Z,96298.31
2022-07-31T02:28:00.533Z,96284.94
2022-07-31T02:30:39.065Z,96289.03
2022-07-31T02:33:13.025Z,96292.22
2022-07-31T02:35:44.226Z,96293.84
2022-07-31T02:38:22.666Z,96286.59
2022-07-31T02:41:01.727Z,96279.69
2022-07-31T02:43:31.775Z,96278.88
2022-07-31T02:46:03.363Z,96280.03
2022-07-31T02:48:31.587Z,96291.03
2022-07-31T02:51:03.149Z,96292.22
2022-07-31T02:53:30.785Z,96285.31
2022-07-31T02:56:04.340Z,96289.34
2022-07-31T02:58:33.215Z,96291.84
2022-07-31T03:01:01.371Z,96279.66
2022-07-31T03:03:29.708Z,96280.31
2022-07-31T03:05:56.647Z,96276.59
2022-07-31T03:08:24.001Z,96277.81
2022-07-31T03:10:54.042Z,96272.97
2022-07-31T03:13:24.431Z,96272.16
2022-07-31T03:15:51.760Z,96266.91
2022-07-31T03:18:21.714Z,96264.88
2022-07-31T03:20:52.611Z,96267.34
2022-07-31T03:23:26.331Z,96270.72
2022-07-31T03:26:05.473Z,96266.47
2022-07-31T03:28:34.676Z,96266.91
2022-07-31T03:31:02.390Z,96266.47
2022-07-31T03:33:30.877Z,96256.50
2022-07-31T03:35:58.143Z,96259.88
2022-07-31T03:38:41.018Z,96268.31
2022-07-31T03:41:31.858Z,96267.53
2022-07-31T03:43:59.016Z,96271.34
2022-07-31T03:46:36.728Z,96271.63
2022-07-31T03:49:29.319Z,96278.53
2022-07-31T03:51:59.350Z,96266.38
2022-07-31T03:54:26.426Z,96274.91
2022-07-31T03:57:00.078Z,96274.53
2022-07-31T03:59:28.344Z,96269.63
2022-07-31T04:02:00.686Z,96273.75
2022-07-31T04:04:40.335Z,96279.66
2022-07-31T04:07:07.869Z,96282.84
2022-07-31T04:09:34.716Z,96280.78
2022-07-31T04:12:03.970Z,96282.31
2022-07-31T04:14:30.967Z,96286.41
2022-07-31T04:16:57.666Z,96285.97
2022-07-31T04:19:25.758Z,96289.13
2022-07-31T04:21:53.529Z,96290.59
2022-07-31T04:24:21.823Z,96277.34
2022-07-31T04:26:59.610Z,96285.00
2022-07-31T04:29:32.975Z,96283.09
2022-07-31T04:31:59.895Z,96288.84
2022-07-31T04:34:33.086Z,96295.03
2022-07-31T04:37:00.107Z,96282.56
2022-07-31T04:39:26.997Z,96285.34
2022-07-31T04:41:56.177Z,96276.69
2022-07-31T04:44:24.349Z,96288.28
2022-07-31T04:47:03.759Z,96282.44
2022-07-31T04:49:34.370Z,96281.69
2022-07-31T04:52:04.256Z,96284.59
2022-07-31T04:54:31.467Z,96288.94
2022-07-31T04:56:59.775Z,96282.69
2022-07-31T04:59:59.433Z,96287.22
2022-07-31T05:02:14.182Z,96288.28
2022-07-31T05:04:41.566Z,96287.13
2022-07-31T05:07:08.304Z,96296.81
2022-07-31T05:09:36.362Z,96304.03
2022-07-31T05:12:06.135Z,96294.22
2022-07-31T05:14:33.409Z,96290.16
2022-07-31T05:17:00.164Z,96297.88
2022-07-31T05:19:39.698Z,96296.75
2022-07-31T05:22:28.674Z,96300.38
2022-07-31T05:25:30.902Z,96300.75
2022-07-31T05:27:58.350Z,96300.75
2022-07-31T05:30:30.261Z,96296.91
2022-07-31T05:32:58.659Z,96298.66
2022-07-31T05:35:26.268Z,96296.25
2022-07-31T05:37:53.431Z,96297.75
2022-07-31T05:40:31.131Z,96293.53
2022-07-31T05:43:21.212Z,96299.31
2022-07-31T05:46:00.820Z,96303.63
2022-07-31T05:48:27.712Z,96293.09
2022-07-31T05:50:54.726Z,96291.16
2022-07-31T05:53:21.789Z,96293.63
2022-07-31T05:56:27.915Z,96298.13
2022-07-31T05:58:58.161Z,96298.38
2022-07-31T06:01:24.977Z,96297.84
2022-07-31T06:03:52.697Z,96303.13
2022-07-31T06:06:51.899Z,96310.25
2022-07-31T06:09:18.596Z,96305.59
2022-07-31T06:11:46.222Z,96307.25
2022-07-31T06:14:13.905Z,96303.47
2022-07-31T06:17:15.938Z,96310.56
2022-07-31T06:19:42.782Z,96319.13
2022-07-31T06:22:11.252Z,96314.50
2022-07-31T06:24:38.316Z,96308.44
2022-07-31T06:27:09.935Z,96310.31
2022-07-31T06:29:51.639Z,96315.22
2022-07-31T06:32:18.787Z,96309.69
2022-07-31T06:34:45.578Z,96311.13
2022-07-31T06:37:15.197Z,96310.41
2022-07-31T06:39:56.153Z,96307.13
2022-07-31T06:42:42.381Z,96316.09
2022-07-31T06:45:12.085Z,96316.09
2022-07-31T06:47:50.979Z,96325.69
2022-07-31T06:50:28.874Z,96323.28
2022-07-31T06:53:28.906Z,96316.28
2022-07-31T06:55:56.165Z,96307.66
2022-07-31T06:58:23.134Z,96307.84
2022-07-31T07:00:50.042Z,96304.09
2022-07-31T07:03:18.100Z,96297.22
2022-07-31T07:05:45.557Z,96288.81
2022-07-31T07:08:13.878Z,96306.09
2022-07-31T07:10:42.183Z,96302.53
2022-07-31T07:13:23.840Z,96300.53
2022-07-31T07:16:12.433Z,96299.75
2022-07-31T07:18:40.182Z,96305.50
2022-07-31T07:21:07.235Z,96300.88
2022-07-31T07:23:34.987Z,96302.06
2022-07-31T07:26:16.339Z,96296.66
2022-07-31T07:28:44.529Z,96299.09
2022-07-31T07:31:11.825Z,96299.44
2022-07-31T07:33:41.584Z,96297.28
2022-07-31T07:36:24.256Z,96298.84
2022-07-31T07:39:03.926Z,96296.47
2022-07-31T07:41:32.953Z,96293.56
2022-07-31T07:44:00.875Z,96287.09
2022-07-31T07:46:29.167Z,96285.66
2022-07-31T07:48:58.348Z,96291.78
2022-07-31T07:51:59.606Z,96277.81
2022-07-31T07:54:39.039Z,96272.72
2022-07-31T07:57:21.299Z,96271.72
2022-07-31T07:59:54.566Z,96260.06
2022-07-31T08:02:30.417Z,96261.50
2022-07-31T08:04:58.566Z,96264.44
2022-07-31T08:07:42.518Z,96265.56
2022-07-31T08:10:28.458Z,96260.19
2022-07-31T08:13:03.065Z,96262.81
2022-07-31T08:15:31.090Z,96263.78
2022-07-31T08:18:15.034Z,96255.25
2022-07-31T08:20:42.517Z,96260.47
2022-07-31T08:23:09.590Z,96257.91
2022-07-31T08:25:44.839Z,96255.59
2022-07-31T08:28:14.877Z,96258.03
2022-07-31T08:30:49.551Z,96256.72
2022-07-31T08:33:20.409Z,96254.16
2022-07-31T08:35:55.053Z,96259.88
2022-07-31T08:38:21.930Z,96253.19
2022-07-31T08:41:07.230Z,96248.41
2022-07-31T08:44:02.668Z,96245.97
2022-07-31T08:46:22.759Z,96245.56
2022-07-31T08:48:54.712Z,96247.19
2022-07-31T08:51:25.476Z,96244.31
2022-07-31T08:54:13.129Z,96233.84
2022-07-31T08:56:42.294Z,96245.59
2022-07-31T08:59:09.907Z,96243.00
2022-07-31T09:01:38.907Z,96238.81
2022-07-31T09:04:05.870Z,96244.06
2022-07-31T09:06:32.710Z,96235.81
2022-07-31T09:08:59.681Z,96232.97
2022-07-31T09:11:26.707Z,96232.72
2022-07-31T09:14:13.766Z,96226.28
2022-07-31T09:16:47.299Z,96221.50
2022-07-31T09:19:52.262Z,96219.59
2022-07-31T09:22:21.143Z,96221.22
2022-07-31T09:24:49.160Z,96221.31
2022-07-31T09:27:17.896Z,96217.41
2022-07-31T09:29:46.951Z,96217.03
2022-07-31T09:32:33.500Z,96223.66
2022-07-31T09:35:15.653Z,96220.50
2022-07-31T09:37:47.764Z,96220.47
2022-07-31T09:40:37.533Z,96224.38
2022-07-31T09:43:46.171Z,96220.81
2022-07-31T09:46:19.302Z,96228.03
2022-07-31T09:49:00.001Z,96223.25
2022-07-31T09:51:39.325Z,96227.56
2022-07-31T09:54:07.057Z,96223.28
2022-07-31T09:56:54.212Z,96231.41
2022-07-31T09:59:22.500Z,96228.16
2022-07-31T10:01:49.920Z,96232.97
2022-07-31T10:04:18.648Z,96221.81
2022-07-31T10:06:50.822Z,96217.22
2022-07-31T10:09:20.537Z,96216.31
2022-07-31T10:12:20.014Z,96208.53
2022-07-31T10:14:49.687Z,96215.31
2022-07-31T10:17:24.561Z,96219.13
2022-07-31T10:20:04.284Z,96216.31
2022-07-31T10:23:11.414Z,96217.09
2022-07-31T10:25:53.486Z,96209.56
2022-07-31T10:28:21.923Z,96205.72
2022-07-31T10:30:49.395Z,96206.09
2022-07-31T10:33:41.958Z,96205.97
2022-07-31T10:36:28.739Z,96207.91
2022-07-31T10:39:49.617Z,96209.84
2022-07-31T10:42:45.682Z,96204.91
2022-07-31T10:45:14.333Z,96195.03
2022-07-31T10:47:59.202Z,96194.53
2022-07-31T10:51:02.617Z,96180.50
2022-07-31T10:53:57.027Z,96185.44
2022-07-31T10:56:46.263Z,96182.69
2022-07-31T10:59:31.716Z,96180.75
2022-07-31T11:02:35.102Z,96174.50
2022-07-31T11:05:30.139Z,96185.31
2022-07-31T11:08:08.335Z,96186.25
2022-07-31T11:11:00.911Z,96172.19
2022-07-31T11:14:00.406Z,96174.56
2022-07-31T11:16:51.594Z,96175.22
2022-07-31T11:19:41.754Z,96167.34
2022-07-31T11:22:32.391Z,96156.31
2022-07-31T11:25:00.761Z,96156.84
2022-07-31T11:27:34.848Z,96146.59
2022-07-31T11:30:12.802Z,96152.34
2022-07-31T11:32:41.625Z,96155.34
2022-07-31T11:35:09.061Z,96155.75
2022-07-31T11:37:46.289Z,96150.09
2022-07-31T11:40:27.569Z,96152.56
2022-07-31T11:43:23.572Z,96148.44
2022-07-31T11:45:53.304Z,96152.25
2022-07-31T11:48:25.444Z,96143.91
2022-07-31T11:50:54.666Z,96142.06
2022-07-31T11:53:21.565Z,96143.13
2022-07-31T11:55:54.416Z,96138.53
2022-07-31T11:58:22.886Z,96137.47
2022-07-31T12:01:00.455Z,96128.09
2022-07-31T12:03:38.576Z,96131.53
2022-07-31T12:06:07.932Z,96136.22
2022-07-31T12:08:35.660Z,96131.34
2022-07-31T12:11:05.433Z,96128.28
2022-07-31T12:13:35.374Z,96123.81
2022-07-31T12:16:08.601Z,96125.50
2022-07-31T12:18:56.537Z,96123.22
2022-07-31T12:21:42.200Z,96123.44
2022-07-31T12:24:20.586Z,96117.19
2022-07-31T12:26:56.327Z,96117.72
2022-07-31T12:29:38.020Z,96113.00
2022-07-31T12:32:06.222Z,96115.75
2022-07-31T12:34:35.496Z,96113.75
2022-07-31T12:37:11.012Z,96112.31
2022-07-31T12:39:59.359Z,96103.66
2022-07-31T12:42:35.267Z,96102.63
2022-07-31T12:45:19.621Z,96102.09
2022-07-31T12:47:52.149Z,96102.44
2022-07-31T12:50:21.564Z,96100.00
2022-07-31T12:52:48.437Z,96104.16
2022-07-31T12:55:17.255Z,96102.22
2022-07-31T12:57:50.424Z,96095.88
2022-07-31T13:00:24.163Z,96093.75
2022-07-31T13:02:52.879Z,96082.72
2022-07-31T13:05:21.834Z,96080.09
2022-07-31T13:07:48.808Z,96081.56
2022-07-31T13:10:24.061Z,96077.94
2022-07-31T13:12:52.633Z,96073.94
2022-07-31T13:15:30.055Z,96068.91
2022-07-31T13:18:02.146Z,96071.06
2022-07-31T13:20:31.099Z,96064.59
2022-07-31T13:22:59.497Z,96067.00
2022-07-31T13:25:28.513Z,96069.44
2022-07-31T13:27:57.365Z,96051.97
2022-07-31T13:30:24.145Z,96058.22
2022-07-31T13:32:51.065Z,96056.72
2022-07-31T13:35:26.862Z,96057.00
2022-07-31T13:37:55.009Z,96055.19
2022-07-31T13:40:41.938Z,96054.38
2022-07-31T13:43:09.208Z,96053.28
2022-07-31T13:45:36.365Z,96051.41
2022-07-31T13:48:08.668Z,96048.22
2022-07-31T13:50:40.074Z,96053.56
2022-07-31T13:53:07.853Z,96040.88
2022-07-31T13:55:34.973Z,96039.22
2022-07-31T13:58:02.183Z,96036.84
2022-07-31T14:00:30.376Z,96041.09
2022-07-31T14:02:57.579Z,96042.16
2022-07-31T14:05:27.578Z,96032.28
2022-07-31T14:07:55.563Z,96038.16
2022-07-31T14:10:23.151Z,96041.59
2022-07-31T14:12:50.960Z,96039.75
2022-07-31T14:15:18.475Z,96036.81
2022-07-31T14:17:45.881Z,96041.75
2022-07-31T14:20:13.229Z,96040.66
2022-07-31T14:22:40.583Z,96029.25
2022-07-31T14:25:07.791Z,96026.47
2022-07-31T14:27:35.248Z,96023.03
2022-07-31T14:30:02.386Z,96025.31
2022-07-31T14:32:30.862Z,96016.25
2022-07-31T14:34:57.674Z,96018.38
2022-07-31T14:37:24.674Z,96006.84
2022-07-31T14:39:51.901Z,96017.84
2022-07-31T14:42:25.573Z,96012.22
2022-07-31T14:44:53.662Z,96014.38
2022-07-31T14:47:20.664Z,96018.13
2022-07-31T14:50:07.222Z,96022.34
2022-07-31T14:52:34.222Z,96023.91
2022-07-31T14:55:01.746Z,96019.06
2022-07-31T14:57:29.897Z,96030.63
2022-07-31T14:59:56.664Z,96024.44
2022-07-31T15:02:23.663Z,96023.69
2022-07-31T15:04:53.989Z,96019.63
2022-07-31T15:07:40.935Z,96024.72
2022-07-31T15:10:09.614Z,96023.34
2022-07-31T15:12:36.591Z,96017.78
2022-07-31T15:15:04.277Z,96018.88
2022-07-31T15:17:31.021Z,96023.94
2022-07-31T15:19:57.773Z,96015.63
2022-07-31T15:22:24.506Z,96018.56
2022-07-31T15:24:51.202Z,96014.31
2022-07-31T15:27:19.301Z,96008.41
2022-07-31T15:30:03.738Z,96004.94
2022-07-31T15:32:33.990Z,96007.84
2022-07-31T15:35:00.889Z,95999.28
2022-07-31T15:37:27.829Z,96004.66
2022-07-31T15:40:02.166Z,96001.19
2022-07-31T15:42:34.740Z,95999.53
2022-07-31T15:45:01.711Z,95996.56
2022-07-31T15:47:28.617Z,96004.56
2022-07-31T15:49:55.666Z,96002.69
2022-07-31T15:52:22.613Z,95996.03
2022-07-31T15:54:52.274Z,95997.34
2022-07-31T15:57:23.819Z,96001.38
2022-07-31T15:59:56.055Z,96003.78
2022-07-31T16:02:24.321Z,95999.22
2022-07-31T16:04:55.563Z,96000.22
2022-07-31T16:08:32.668Z,96012.22
2022-07-31T16:10:16.466Z,96002.81
2022-07-31T16:12:48.624Z,96000.81
2022-07-31T16:15:17.285Z,95989.28
2022-07-31T16:17:45.306Z,95985.97
2022-07-31T16:20:25.436Z,95991.59
2022-07-31T16:22:56.640Z,95985.75
2022-07-31T16:25:27.181Z,95981.25
2022-07-31T16:27:55.422Z,95978.03
2022-07-31T16:30:23.321Z,95983.13
2022-07-31T16:32:50.332Z,95978.03
2022-07-31T16:35:17.171Z,95976.97
2022-07-31T16:37:50.195Z,95971.75
2022-07-31T16:40:28.958Z,95977.03
2022-07-31T16:43:01.124Z,95972.94
2022-07-31T16:45:28.674Z,95971.03
2022-07-31T16:47:55.453Z,95967.03
2022-07-31T16:50:22.278Z,95971.59
2022-07-31T16:52:52.619Z,95976.38
2022-07-31T16:55:51.614Z,95962.16
2022-07-31T16:58:11.760Z,95966.91
2022-07-31T17:00:39.774Z,95960.25
2022-07-31T17:03:06.804Z,95957.03
2022-07-31T17:05:53.530Z,95957.53
2022-07-31T17:08:20.347Z,95959.59
2022-07-31T17:10:50.060Z,95960.34
2022-07-31T17:13:19.641Z,95963.31
2022-07-31T17:15:46.380Z,95959.28
2022-07-31T17:18:13.039Z,95965.69
2022-07-31T17:20:42.956Z,95964.63
2022-07-31T17:23:10.202Z,95967.50
2022-07-31T17:25:37.196Z,95970.38
2022-07-31T17:28:04.088Z,95966.84
2022-07-31T17:30:30.890Z,95970.84
2022-07-31T17:32:57.547Z,95971.91
2022-07-31T17:35:24.275Z,95967.88
2022-07-31T17:37:51.005Z,95978.72
2022-07-31T17:40:42.017Z,95977.34
2022-07-31T17:43:04.437Z,95980.00
2022-07-31T17:45:50.646Z,95980.84
2022-07-31T17:48:20.076Z,95980.78
2022-07-31T17:50:48.542Z,95977.16
2022-07-31T17:53:18.175Z,95986.38
2022-07-31T17:55:44.787Z,95987.63
2022-07-31T17:58:11.718Z,95987.09
2022-07-31T18:00:39.557Z,95984.53
2022-07-31T18:03:06.386Z,95993.50
2022-07-31T18:05:33.103Z,95998.72
2022-07-31T18:07:59.853Z,96001.88
2022-07-31T18:10:51.803Z,96004.78
2022-07-31T18:13:14.640Z,96001.38
2022-07-31T18:15:43.227Z,95999.19
2022-07-31T18:18:09.862Z,95997.09
2022-07-31T18:20:36.652Z,95988.09
2022-07-31T18:23:03.446Z,95989.69
2022-07-31T18:25:32.440Z,95987.34
2022-07-31T18:28:00.485Z,95994.00
2022-07-31T18:30:30.459Z,95989.97
2022-07-31T18:33:00.550Z,95987.97
2022-07-31T18:35:27.316Z,95985.84
2022-07-31T18:37:54.337Z,95991.94
2022-07-31T18:40:21.273Z,95988.22
2022-07-31T18:42:48.052Z,95992.03
2022-07-31T18:45:14.745Z,96000.03
2022-07-31T18:47:41.647Z,95994.94
2022-07-31T18:51:01.286Z,95996.16
2022-07-31T18:52:55.573Z,96001.25
2022-07-31T18:55:22.989Z,95995.38
2022-07-31T18:57:50.821Z,95991.81
2022-07-31T19:00:17.687Z,95995.84
2022-07-31T19:02:44.435Z,96000.72
2022-07-31T19:05:13.585Z,96004.13
2022-07-31T19:07:48.902Z,96004.03
2022-07-31T19:10:29.310Z,96002.41
2022-07-31T19:12:57.030Z,95999.75
2022-07-31T19:15:23.833Z,96009.63
2022-07-31T19:17:50.607Z,96006.13
2022-07-31T19:20:46.496Z,95999.91
2022-07-31T19:23:06.942Z,95998.81
2022-07-31T19:26:02.014Z,95999.28
2022-07-31T19:28:27.404Z,96004.28
2022-07-31T19:30:54.729Z,96003.97
2022-07-31T19:33:21.612Z,96006.06
2022-07-31T19:35:55.110Z,96005.44
2022-07-31T19:38:22.479Z,96014.22
2022-07-31T19:40:49.320Z,95999.69
2022-07-31T19:43:16.278Z,95995.72
2022-07-31T19:46:00.511Z,96000.56
2022-07-31T19:48:36.033Z,96000.56
2022-07-31T19:51:02.981Z,96003.00
2022-07-31T19:53:30.347Z,96003.00
2022-07-31T19:55:57.598Z,96002.19
2022-07-31T19:58:24.428Z,96005.81
2022-07-31T20:00:51.054Z,96009.84
2022-07-31T20:03:17.895Z,96010.09
2022-07-31T20:05:44.735Z,96008.81
2022-07-31T20:08:11.454Z,96000.22
2022-07-31T20:10:38.662Z,95997.97
2022-07-31T20:13:06.055Z,95991.03
2022-07-31T20:15:51.952Z,95995.38
2022-07-31T20:18:27.384Z,95990.94
2022-07-31T20:21:08.320Z,95992.88
2022-07-31T20:23:38.658Z,95980.84
2022-07-31T20:26:07.439Z,95985.75
2022-07-31T20:28:34.643Z,95981.72
2022-07-31T20:31:01.706Z,95980.84
2022-07-31T20:33:28.629Z,95986.88
2022-07-31T20:35:55.371Z,95993.75
2022-07-31T20:38:23.163Z,95990.06
2022-07-31T20:40:55.592Z,95985.03
2022-07-31T20:43:28.218Z,95984.22
2022-07-31T20:45:59.335Z,95984.47
2022-07-31T20:48:31.588Z,95977.91
2022-07-31T20:50:59.370Z,95972.91
2022-07-31T20:53:26.275Z,95978.00
2022-07-31T20:55:53.075Z,95971.41
2022-07-31T20:58:21.573Z,95968.50
2022-07-31T21:00:50.140Z,95959.47
2022-07-31T21:03:18.098Z,95962.72
2022-07-31T21:05:45.713Z,95954.81
2022-07-31T21:08:12.781Z,95946.34
2022-07-31T21:10:39.773Z,95945.31
2022-07-31T21:13:06.507Z,95945.88
2022-07-31T21:15:42.785Z,95948.56
2022-07-31T21:18:18.738Z,95950.16
2022-07-31T21:20:53.461Z,95943.69
2022-07-31T21:23:22.551Z,95942.22
2022-07-31T21:25:49.843Z,95947.09
2022-07-31T21:28:16.850Z,95952.91
2022-07-31T21:30:43.840Z,95956.84
2022-07-31T21:33:10.654Z,95954.19
2022-07-31T21:35:39.975Z,95947.38
2022-07-31T21:38:10.359Z,95955.56
2022-07-31T21:40:39.377Z,95952.47
2022-07-31T21:43:06.430Z,95955.94
2022-07-31T21:45:50.981Z,95956.28
2022-07-31T21:48:23.088Z,95966.44
2022-07-31T21:50:50.984Z,95965.41
2022-07-31T21:53:18.151Z,95969.44
2022-07-31T21:55:44.870Z,95969.78
2022-07-31T21:58:11.615Z,95973.59
2022-07-31T22:00:38.529Z,95967.44
2022-07-31T22:03:05.496Z,95973.59
2022-07-31T22:05:52.033Z,95978.09
2022-07-31T22:08:19.293Z,95967.44
2022-07-31T22:10:46.693Z,95964.78
2022-07-31T22:13:13.577Z,95964.78
2022-07-31T22:15:58.572Z,95965.50
2022-07-31T22:18:32.377Z,95963.34
2022-07-31T22:21:00.976Z,95961.72
2022-07-31T22:23:28.695Z,95961.03
2022-07-31T22:25:56.110Z,95958.63
2022-07-31T22:28:24.887Z,95962.34
2022-07-31T22:30:52.890Z,95963.41
2022-07-31T22:33:20.842Z,95967.22
2022-07-31T22:35:58.636Z,95959.94
2022-07-31T22:38:28.054Z,95957.28
2022-07-31T22:40:55.126Z,95964.44
2022-07-31T22:44:09.898Z,95960.41
2022-07-31T22:46:13.171Z,95953.94
2022-07-31T22:48:41.025Z,95958.47
2022-07-31T22:51:08.738Z,95961.34
2022-07-31T22:53:36.298Z,95957.06
2022-07-31T22:56:03.610Z,95961.25
2022-07-31T22:58:30.590Z,95962.53
2022-07-31T23:00:57.390Z,95960.78
2022-07-31T23:03:24.490Z,95956.06
2022-07-31T23:06:12.248Z,95955.94
2022-07-31T23:08:37.797Z,95959.75
2022-07-31T23:11:04.654Z,95964.94
2022-07-31T23:13:31.337Z,95964.22
2022-07-31T23:15:58.023Z,95964.91
2022-07-31T23:18:26.477Z,95967.22
2022-07-31T23:20:53.370Z,95956.94
2022-07-31T23:23:20.091Z,95952.66
2022-07-31T23:25:46.773Z,95959.34
2022-07-31T23:28:13.541Z,95962.50
2022-07-31T23:30:40.338Z,95963.66
2022-07-31T23:33:07.015Z,95972.22
2022-07-31T23:35:33.709Z,95970.59
2022-07-31T23:38:00.421Z,95959.97
2022-07-31T23:40:27.112Z,95966.53
2022-07-31T23:42:53.782Z,95954.88
2022-07-31T23:45:20.473Z,95953.84
2022-07-31T23:47:48.291Z,95958.34
2022-07-31T23:50:16.833Z,95951.19
2022-07-31T23:52:44.017Z,95952.47
2022-07-31T23:55:11.410Z,95950.03
2022-07-31T23:57:39.650Z,95938.25
